sensor_id;sensor_type;location;lat;lon;timestamp;temperature;humidity
20459;DHT22;10388;52.314;7.938;2022-12-07T00:02:04;4.60;99.90
20459;DHT22;10388;52.314;7.938;2022-12-07T00:04:34;4.60;99.90
20459;DHT22;10388;52.314;7.938;2022-12-07T00:07:04;4.60;99.90
20459;DHT22;10388;52.314;7.938;2022-12-07T00:09:35;4.60;99.90
20459;DHT22;10388;52.314;7.938;2022-12-07T00:12:06;4.60;99.90
20459;DHT22;10388;52.314;7.938;2022-12-07T00:14:36;4.60;99.90
20459;DHT22;10388;52.314;7.938;2022-12-07T00:17:07;4.60;99.90
20459;DHT22;10388;52.314;7.938;2022-12-07T00:19:37;4.60;99.90
20459;DHT22;10388;52.314;7.938;2022-12-07T00:22:08;4.50;99.90
20459;DHT22;10388;52.314;7.938;2022-12-07T00:24:38;4.50;99.90
20459;DHT22;10388;52.314;7.938;2022-12-07T00:27:09;4.50;99.90
20459;DHT22;10388;52.314;7.938;2022-12-07T00:29:39;4.50;99.90
20459;DHT22;10388;52.314;7.938;2022-12-07T00:32:10;4.50;99.90
20459;DHT22;10388;52.314;7.938;2022-12-07T00:34:40;4.50;99.90
20459;DHT22;10388;52.314;7.938;2022-12-07T00:37:11;4.50;99.90
20459;DHT22;10388;52.314;7.938;2022-12-07T00:39:42;4.40;99.90
20459;DHT22;10388;52.314;7.938;2022-12-07T00:42:13;4.40;99.90
20459;DHT22;10388;52.314;7.938;2022-12-07T00:44:43;4.30;99.90
20459;DHT22;10388;52.314;7.938;2022-12-07T00:47:14;4.30;99.90
20459;DHT22;10388;52.314;7.938;2022-12-07T00:49:44;4.30;99.90
20459;DHT22;10388;52.314;7.938;2022-12-07T00:52:15;4.30;99.90
20459;DHT22;10388;52.314;7.938;2022-12-07T00:54:45;4.30;99.90
20459;DHT22;10388;52.314;7.938;2022-12-07T00:57:16;4.30;99.90
20459;DHT22;10388;52.314;7.938;2022-12-07T00:59:46;4.30;99.90
20459;DHT22;10388;52.314;7.938;2022-12-07T01:02:18;4.20;99.90
20459;DHT22;10388;52.314;7.938;2022-12-07T01:04:51;4.20;99.90
20459;DHT22;10388;52.314;7.938;2022-12-07T01:07:21;4.10;99.90
20459;DHT22;10388;52.314;7.938;2022-12-07T01:09:52;4.10;99.90
20459;DHT22;10388;52.314;7.938;2022-12-07T01:12:23;4.10;99.90
20459;DHT22;10388;52.314;7.938;2022-12-07T01:14:54;4.10;99.90
20459;DHT22;10388;52.314;7.938;2022-12-07T01:17:24;4.10;99.90
20459;DHT22;10388;52.314;7.938;2022-12-07T01:23:22;4.10;99.90
20459;DHT22;10388;52.314;7.938;2022-12-07T01:26:25;4.10;99.90
20459;DHT22;10388;52.314;7.938;2022-12-07T01:29:20;4.10;99.90
20459;DHT22;10388;52.314;7.938;2022-12-07T01:32:38;4.10;99.90
20459;DHT22;10388;52.314;7.938;2022-12-07T01:41:58;3.80;99.90
20459;DHT22;10388;52.314;7.938;2022-12-07T01:48:03;3.60;99.90
20459;DHT22;10388;52.314;7.938;2022-12-07T01:54:13;3.40;99.90
20459;DHT22;10388;52.314;7.938;2022-12-07T01:57:38;3.30;99.90
20459;DHT22;10388;52.314;7.938;2022-12-07T02:03:49;3.10;99.90
20459;DHT22;10388;52.314;7.938;2022-12-07T02:10:43;3.00;99.90
20459;DHT22;10388;52.314;7.938;2022-12-07T03:00:54;2.40;99.90
20459;DHT22;10388;52.314;7.938;2022-12-07T03:04:07;2.40;99.90
20459;DHT22;10388;52.314;7.938;2022-12-07T03:14:31;2.30;99.90
20459;DHT22;10388;52.314;7.938;2022-12-07T03:17:32;2.40;99.90
20459;DHT22;10388;52.314;7.938;2022-12-07T03:20:36;2.40;99.90
20459;DHT22;10388;52.314;7.938;2022-12-07T03:23:51;2.40;99.90
20459;DHT22;10388;52.314;7.938;2022-12-07T03:30:42;2.30;99.90
20459;DHT22;10388;52.314;7.938;2022-12-07T03:41:30;2.30;99.90
20459;DHT22;10388;52.314;7.938;2022-12-07T03:44:27;2.30;99.90
20459;DHT22;10388;52.314;7.938;2022-12-07T03:54:43;2.20;99.90
20459;DHT22;10388;52.314;7.938;2022-12-07T03:58:03;2.20;99.90
20459;DHT22;10388;52.314;7.938;2022-12-07T04:01:22;2.20;99.90
20459;DHT22;10388;52.314;7.938;2022-12-07T04:07:28;2.10;99.90
20459;DHT22;10388;52.314;7.938;2022-12-07T04:32:04;2.40;99.90
20459;DHT22;10388;52.314;7.938;2022-12-07T04:38:32;2.40;99.90
20459;DHT22;10388;52.314;7.938;2022-12-07T04:41:11;2.40;99.90
20459;DHT22;10388;52.314;7.938;2022-12-07T04:44:03;2.50;99.90
20459;DHT22;10388;52.314;7.938;2022-12-07T04:50:53;2.40;99.90
20459;DHT22;10388;52.314;7.938;2022-12-07T04:53:50;2.30;99.90
20459;DHT22;10388;52.314;7.938;2022-12-07T04:57:27;2.30;99.90
20459;DHT22;10388;52.314;7.938;2022-12-07T05:00:33;2.20;99.90
20459;DHT22;10388;52.314;7.938;2022-12-07T05:06:33;2.20;99.90
20459;DHT22;10388;52.314;7.938;2022-12-07T05:18:33;2.00;99.90
20459;DHT22;10388;52.314;7.938;2022-12-07T05:21:04;2.00;99.90
20459;DHT22;10388;52.314;7.938;2022-12-07T05:23:34;2.00;99.90
20459;DHT22;10388;52.314;7.938;2022-12-07T05:26:05;1.90;99.90
20459;DHT22;10388;52.314;7.938;2022-12-07T05:28:35;1.90;99.90
20459;DHT22;10388;52.314;7.938;2022-12-07T05:31:06;1.90;99.90
20459;DHT22;10388;52.314;7.938;2022-12-07T05:33:38;2.00;99.90
20459;DHT22;10388;52.314;7.938;2022-12-07T05:36:08;2.00;99.90
20459;DHT22;10388;52.314;7.938;2022-12-07T05:38:39;2.00;99.90
20459;DHT22;10388;52.314;7.938;2022-12-07T05:41:13;2.00;99.90
20459;DHT22;10388;52.314;7.938;2022-12-07T05:44:04;2.10;99.90
20459;DHT22;10388;52.314;7.938;2022-12-07T05:46:34;2.20;99.90
20459;DHT22;10388;52.314;7.938;2022-12-07T05:49:05;2.20;99.90
20459;DHT22;10388;52.314;7.938;2022-12-07T05:51:35;2.10;99.90
20459;DHT22;10388;52.314;7.938;2022-12-07T05:54:06;2.10;99.90
20459;DHT22;10388;52.314;7.938;2022-12-07T05:56:36;2.10;99.90
20459;DHT22;10388;52.314;7.938;2022-12-07T05:59:08;2.10;99.90
20459;DHT22;10388;52.314;7.938;2022-12-07T06:02:06;2.00;99.90
20459;DHT22;10388;52.314;7.938;2022-12-07T06:04:41;2.10;99.90
20459;DHT22;10388;52.314;7.938;2022-12-07T06:07:14;2.00;99.90
20459;DHT22;10388;52.314;7.938;2022-12-07T06:09:45;2.10;99.90
20459;DHT22;10388;52.314;7.938;2022-12-07T06:12:15;2.10;99.90
20459;DHT22;10388;52.314;7.938;2022-12-07T06:15:05;2.10;99.90
20459;DHT22;10388;52.314;7.938;2022-12-07T06:17:36;2.10;99.90
20459;DHT22;10388;52.314;7.938;2022-12-07T06:20:07;2.10;99.90
20459;DHT22;10388;52.314;7.938;2022-12-07T06:22:38;2.00;99.90
20459;DHT22;10388;52.314;7.938;2022-12-07T06:25:08;1.90;99.90
20459;DHT22;10388;52.314;7.938;2022-12-07T06:27:40;2.00;99.90
20459;DHT22;10388;52.314;7.938;2022-12-07T06:30:10;2.00;99.90
20459;DHT22;10388;52.314;7.938;2022-12-07T06:32:41;2.00;99.90
20459;DHT22;10388;52.314;7.938;2022-12-07T06:35:11;2.10;99.90
20459;DHT22;10388;52.314;7.938;2022-12-07T06:37:42;2.20;99.90
20459;DHT22;10388;52.314;7.938;2022-12-07T06:40:13;2.30;99.90
20459;DHT22;10388;52.314;7.938;2022-12-07T06:42:43;2.20;99.90
20459;DHT22;10388;52.314;7.938;2022-12-07T06:45:14;2.20;99.90
20459;DHT22;10388;52.314;7.938;2022-12-07T06:47:44;2.10;99.90
20459;DHT22;10388;52.314;7.938;2022-12-07T06:50:15;2.10;99.90
20459;DHT22;10388;52.314;7.938;2022-12-07T06:52:45;2.00;99.90
20459;DHT22;10388;52.314;7.938;2022-12-07T06:55:16;2.00;99.90
20459;DHT22;10388;52.314;7.938;2022-12-07T06:57:46;2.00;99.90
20459;DHT22;10388;52.314;7.938;2022-12-07T07:00:17;2.00;99.90
20459;DHT22;10388;52.314;7.938;2022-12-07T07:02:48;2.10;99.90
20459;DHT22;10388;52.314;7.938;2022-12-07T07:05:18;2.10;99.90
20459;DHT22;10388;52.314;7.938;2022-12-07T07:07:51;2.10;99.90
20459;DHT22;10388;52.314;7.938;2022-12-07T07:10:22;2.10;99.90
20459;DHT22;10388;52.314;7.938;2022-12-07T07:12:52;2.10;99.90
20459;DHT22;10388;52.314;7.938;2022-12-07T07:15:23;2.10;99.90
20459;DHT22;10388;52.314;7.938;2022-12-07T07:17:54;2.10;99.90
20459;DHT22;10388;52.314;7.938;2022-12-07T07:20:24;2.10;99.90
20459;DHT22;10388;52.314;7.938;2022-12-07T07:22:55;2.00;99.90
20459;DHT22;10388;52.314;7.938;2022-12-07T07:25:26;2.00;99.90
20459;DHT22;10388;52.314;7.938;2022-12-07T07:27:57;2.00;99.90
20459;DHT22;10388;52.314;7.938;2022-12-07T07:30:27;2.00;99.90
20459;DHT22;10388;52.314;7.938;2022-12-07T07:33:02;2.00;99.90
20459;DHT22;10388;52.314;7.938;2022-12-07T07:35:34;2.00;99.90
20459;DHT22;10388;52.314;7.938;2022-12-07T07:38:05;1.90;99.90
20459;DHT22;10388;52.314;7.938;2022-12-07T07:40:36;1.90;99.90
20459;DHT22;10388;52.314;7.938;2022-12-07T07:43:07;1.90;99.90
20459;DHT22;10388;52.314;7.938;2022-12-07T07:45:37;1.90;99.90
20459;DHT22;10388;52.314;7.938;2022-12-07T07:48:08;1.80;99.90
20459;DHT22;10388;52.314;7.938;2022-12-07T07:50:38;1.80;99.90
20459;DHT22;10388;52.314;7.938;2022-12-07T07:53:09;1.80;99.90
20459;DHT22;10388;52.314;7.938;2022-12-07T07:55:39;1.90;99.90
20459;DHT22;10388;52.314;7.938;2022-12-07T07:58:10;1.90;99.90
20459;DHT22;10388;52.314;7.938;2022-12-07T08:00:40;1.90;99.90
20459;DHT22;10388;52.314;7.938;2022-12-07T08:03:11;2.00;99.90
20459;DHT22;10388;52.314;7.938;2022-12-07T08:05:41;2.10;99.90
20459;DHT22;10388;52.314;7.938;2022-12-07T08:08:12;2.10;99.90
20459;DHT22;10388;52.314;7.938;2022-12-07T08:10:42;2.10;99.90
20459;DHT22;10388;52.314;7.938;2022-12-07T08:13:15;2.10;99.90
20459;DHT22;10388;52.314;7.938;2022-12-07T08:15:47;2.10;99.90
20459;DHT22;10388;52.314;7.938;2022-12-07T08:18:18;2.10;99.90
20459;DHT22;10388;52.314;7.938;2022-12-07T08:20:48;2.10;99.90
20459;DHT22;10388;52.314;7.938;2022-12-07T08:23:19;2.10;99.90
20459;DHT22;10388;52.314;7.938;2022-12-07T08:25:49;2.20;99.90
20459;DHT22;10388;52.314;7.938;2022-12-07T08:28:20;2.30;99.90
20459;DHT22;10388;52.314;7.938;2022-12-07T08:30:51;2.40;99.90
20459;DHT22;10388;52.314;7.938;2022-12-07T08:33:22;2.40;99.90
20459;DHT22;10388;52.314;7.938;2022-12-07T08:35:53;2.50;99.90
20459;DHT22;10388;52.314;7.938;2022-12-07T08:38:24;2.50;99.90
20459;DHT22;10388;52.314;7.938;2022-12-07T08:40:58;2.50;99.90
20459;DHT22;10388;52.314;7.938;2022-12-07T08:43:29;2.60;99.90
20459;DHT22;10388;52.314;7.938;2022-12-07T08:46:25;2.60;99.90
20459;DHT22;10388;52.314;7.938;2022-12-07T08:49:03;2.70;99.90
20459;DHT22;10388;52.314;7.938;2022-12-07T08:51:35;2.70;99.90
20459;DHT22;10388;52.314;7.938;2022-12-07T08:54:09;2.60;99.90
20459;DHT22;10388;52.314;7.938;2022-12-07T08:56:40;2.60;99.90
20459;DHT22;10388;52.314;7.938;2022-12-07T08:59:14;2.70;99.90
20459;DHT22;10388;52.314;7.938;2022-12-07T09:01:45;2.70;99.90
20459;DHT22;10388;52.314;7.938;2022-12-07T09:04:16;2.70;99.90
20459;DHT22;10388;52.314;7.938;2022-12-07T09:06:47;2.70;99.90
20459;DHT22;10388;52.314;7.938;2022-12-07T09:09:17;2.70;99.90
20459;DHT22;10388;52.314;7.938;2022-12-07T09:11:48;2.70;99.90
20459;DHT22;10388;52.314;7.938;2022-12-07T09:14:18;2.60;99.90
20459;DHT22;10388;52.314;7.938;2022-12-07T09:16:49;2.60;99.90
20459;DHT22;10388;52.314;7.938;2022-12-07T09:19:20;2.70;99.90
20459;DHT22;10388;52.314;7.938;2022-12-07T09:21:51;2.70;99.90
20459;DHT22;10388;52.314;7.938;2022-12-07T09:24:21;2.80;99.90
20459;DHT22;10388;52.314;7.938;2022-12-07T09:26:52;2.90;99.90
20459;DHT22;10388;52.314;7.938;2022-12-07T09:29:24;3.00;99.90
20459;DHT22;10388;52.314;7.938;2022-12-07T09:31:54;3.00;99.90
20459;DHT22;10388;52.314;7.938;2022-12-07T09:34:25;3.10;99.90
20459;DHT22;10388;52.314;7.938;2022-12-07T09:36:56;3.10;99.90
20459;DHT22;10388;52.314;7.938;2022-12-07T09:39:27;3.20;99.90
20459;DHT22;10388;52.314;7.938;2022-12-07T09:41:58;3.20;99.90
20459;DHT22;10388;52.314;7.938;2022-12-07T09:44:33;3.30;99.90
20459;DHT22;10388;52.314;7.938;2022-12-07T09:47:05;3.30;99.90
20459;DHT22;10388;52.314;7.938;2022-12-07T09:49:36;3.40;99.90
20459;DHT22;10388;52.314;7.938;2022-12-07T09:54:50;3.50;99.90
20459;DHT22;10388;52.314;7.938;2022-12-07T09:57:30;3.50;99.90
20459;DHT22;10388;52.314;7.938;2022-12-07T10:00:06;3.60;99.90
20459;DHT22;10388;52.314;7.938;2022-12-07T10:02:43;3.60;99.90
20459;DHT22;10388;52.314;7.938;2022-12-07T10:05:30;3.60;99.90
20459;DHT22;10388;52.314;7.938;2022-12-07T10:08:01;3.60;99.90
20459;DHT22;10388;52.314;7.938;2022-12-07T10:10:34;3.60;99.90
20459;DHT22;10388;52.314;7.938;2022-12-07T10:13:13;3.60;99.90
20459;DHT22;10388;52.314;7.938;2022-12-07T10:15:51;3.50;99.90
20459;DHT22;10388;52.314;7.938;2022-12-07T10:18:37;3.60;99.90
20459;DHT22;10388;52.314;7.938;2022-12-07T10:26:33;3.70;99.90
20459;DHT22;10388;52.314;7.938;2022-12-07T10:29:15;3.70;99.90
20459;DHT22;10388;52.314;7.938;2022-12-07T10:31:54;3.80;99.90
20459;DHT22;10388;52.314;7.938;2022-12-07T10:34:27;3.90;99.90
20459;DHT22;10388;52.314;7.938;2022-12-07T10:39:50;4.10;99.90
20459;DHT22;10388;52.314;7.938;2022-12-07T10:42:22;4.20;99.90
20459;DHT22;10388;52.314;7.938;2022-12-07T10:47:52;4.50;99.90
20459;DHT22;10388;52.314;7.938;2022-12-07T10:53:33;4.50;99.90
20459;DHT22;10388;52.314;7.938;2022-12-07T10:56:22;4.50;99.90
20459;DHT22;10388;52.314;7.938;2022-12-07T11:08:13;4.60;99.90
20459;DHT22;10388;52.314;7.938;2022-12-07T11:11:09;4.60;99.90
20459;DHT22;10388;52.314;7.938;2022-12-07T11:14:12;4.70;99.90
20459;DHT22;10388;52.314;7.938;2022-12-07T11:16:59;4.90;99.90
20459;DHT22;10388;52.314;7.938;2022-12-07T11:22:36;5.10;99.90
20459;DHT22;10388;52.314;7.938;2022-12-07T11:25:32;5.20;99.90
20459;DHT22;10388;52.314;7.938;2022-12-07T11:31:12;5.20;99.90
20459;DHT22;10388;52.314;7.938;2022-12-07T11:34:57;5.10;99.90
20459;DHT22;10388;52.314;7.938;2022-12-07T11:37:02;5.00;99.90
20459;DHT22;10388;52.314;7.938;2022-12-07T11:39:39;5.00;99.90
20459;DHT22;10388;52.314;7.938;2022-12-07T11:42:19;5.10;99.90
20459;DHT22;10388;52.314;7.938;2022-12-07T11:47:30;5.20;99.90
20459;DHT22;10388;52.314;7.938;2022-12-07T11:56:16;5.30;99.90
20459;DHT22;10388;52.314;7.938;2022-12-07T12:06:41;5.40;99.90
20459;DHT22;10388;52.314;7.938;2022-12-07T12:09:19;5.40;99.90
20459;DHT22;10388;52.314;7.938;2022-12-07T12:23:00;5.50;99.90
20459;DHT22;10388;52.314;7.938;2022-12-07T12:25:48;5.60;99.90
20459;DHT22;10388;52.314;7.938;2022-12-07T12:28:40;5.50;99.90
20459;DHT22;10388;52.314;7.938;2022-12-07T12:31:29;5.50;99.90
20459;DHT22;10388;52.314;7.938;2022-12-07T12:34:04;5.50;99.90
20459;DHT22;10388;52.314;7.938;2022-12-07T12:39:18;5.40;99.90
20459;DHT22;10388;52.314;7.938;2022-12-07T12:41:53;5.40;99.90
20459;DHT22;10388;52.314;7.938;2022-12-07T12:47:40;5.50;99.90
20459;DHT22;10388;52.314;7.938;2022-12-07T12:50:22;5.60;99.90
20459;DHT22;10388;52.314;7.938;2022-12-07T12:53:00;5.70;99.90
20459;DHT22;10388;52.314;7.938;2022-12-07T13:01:53;5.70;99.90
20459;DHT22;10388;52.314;7.938;2022-12-07T13:03:58;5.70;99.90
20459;DHT22;10388;52.314;7.938;2022-12-07T13:06:35;5.70;99.90
20459;DHT22;10388;52.314;7.938;2022-12-07T13:09:19;5.70;99.90
20459;DHT22;10388;52.314;7.938;2022-12-07T13:12:21;5.70;99.90
20459;DHT22;10388;52.314;7.938;2022-12-07T13:14:56;5.80;99.90
20459;DHT22;10388;52.314;7.938;2022-12-07T13:20:05;5.80;99.90
20459;DHT22;10388;52.314;7.938;2022-12-07T13:22:41;5.80;99.90
20459;DHT22;10388;52.314;7.938;2022-12-07T13:25:21;5.80;99.90
20459;DHT22;10388;52.314;7.938;2022-12-07T13:28:04;5.90;99.90
20459;DHT22;10388;52.314;7.938;2022-12-07T13:30:46;5.80;99.90
20459;DHT22;10388;52.314;7.938;2022-12-07T13:33:18;5.80;99.90
20459;DHT22;10388;52.314;7.938;2022-12-07T13:35:53;5.80;99.90
20459;DHT22;10388;52.314;7.938;2022-12-07T13:38:28;5.80;99.90
20459;DHT22;10388;52.314;7.938;2022-12-07T13:43:48;5.70;99.90
20459;DHT22;10388;52.314;7.938;2022-12-07T13:46:27;5.70;99.90
20459;DHT22;10388;52.314;7.938;2022-12-07T13:49:01;5.60;99.90
20459;DHT22;10388;52.314;7.938;2022-12-07T13:51:34;5.50;99.90
20459;DHT22;10388;52.314;7.938;2022-12-07T13:54:11;5.50;99.90
20459;DHT22;10388;52.314;7.938;2022-12-07T13:56:42;5.50;99.90
20459;DHT22;10388;52.314;7.938;2022-12-07T13:59:18;5.40;99.90
20459;DHT22;10388;52.314;7.938;2022-12-07T14:01:51;5.50;99.90
20459;DHT22;10388;52.314;7.938;2022-12-07T14:04:32;5.60;99.90
20459;DHT22;10388;52.314;7.938;2022-12-07T14:07:26;5.60;99.90
20459;DHT22;10388;52.314;7.938;2022-12-07T14:10:04;5.60;99.90
20459;DHT22;10388;52.314;7.938;2022-12-07T14:12:36;5.60;99.90
20459;DHT22;10388;52.314;7.938;2022-12-07T14:15:20;5.50;99.90
20459;DHT22;10388;52.314;7.938;2022-12-07T14:17:53;5.50;99.90
20459;DHT22;10388;52.314;7.938;2022-12-07T14:20:34;5.40;99.90
20459;DHT22;10388;52.314;7.938;2022-12-07T14:23:24;5.30;99.90
20459;DHT22;10388;52.314;7.938;2022-12-07T14:26:07;5.30;99.90
20459;DHT22;10388;52.314;7.938;2022-12-07T14:28:41;5.20;99.90
20459;DHT22;10388;52.314;7.938;2022-12-07T14:31:17;5.20;99.90
20459;DHT22;10388;52.314;7.938;2022-12-07T14:33:48;5.10;99.90
20459;DHT22;10388;52.314;7.938;2022-12-07T14:36:19;5.00;99.90
20459;DHT22;10388;52.314;7.938;2022-12-07T14:38:49;4.80;99.90
20459;DHT22;10388;52.314;7.938;2022-12-07T14:41:21;4.40;99.90
20459;DHT22;10388;52.314;7.938;2022-12-07T14:44:11;4.20;99.90
20459;DHT22;10388;52.314;7.938;2022-12-07T14:46:42;4.10;99.90
20459;DHT22;10388;52.314;7.938;2022-12-07T14:49:13;4.00;99.90
20459;DHT22;10388;52.314;7.938;2022-12-07T14:51:44;3.90;99.90
20459;DHT22;10388;52.314;7.938;2022-12-07T14:54:18;3.90;99.90
20459;DHT22;10388;52.314;7.938;2022-12-07T14:56:49;3.80;99.90
20459;DHT22;10388;52.314;7.938;2022-12-07T14:59:21;3.70;99.90
20459;DHT22;10388;52.314;7.938;2022-12-07T15:01:51;3.70;99.90
20459;DHT22;10388;52.314;7.938;2022-12-07T15:04:22;3.60;99.90
20459;DHT22;10388;52.314;7.938;2022-12-07T15:06:57;3.60;99.90
20459;DHT22;10388;52.314;7.938;2022-12-07T15:09:28;3.50;99.90
20459;DHT22;10388;52.314;7.938;2022-12-07T15:11:58;3.40;99.90
20459;DHT22;10388;52.314;7.938;2022-12-07T15:14:29;3.40;99.90
20459;DHT22;10388;52.314;7.938;2022-12-07T15:16:59;3.30;99.90
20459;DHT22;10388;52.314;7.938;2022-12-07T15:19:30;3.20;99.90
20459;DHT22;10388;52.314;7.938;2022-12-07T15:22:00;3.20;99.90
20459;DHT22;10388;52.314;7.938;2022-12-07T15:24:31;3.10;99.90
20459;DHT22;10388;52.314;7.938;2022-12-07T15:27:01;3.00;99.90
20459;DHT22;10388;52.314;7.938;2022-12-07T15:29:32;3.00;99.90
20459;DHT22;10388;52.314;7.938;2022-12-07T15:32:03;2.90;99.90
20459;DHT22;10388;52.314;7.938;2022-12-07T15:34:33;2.80;99.90
20459;DHT22;10388;52.314;7.938;2022-12-07T15:37:04;2.80;99.90
20459;DHT22;10388;52.314;7.938;2022-12-07T15:39:36;2.70;99.90
20459;DHT22;10388;52.314;7.938;2022-12-07T15:42:07;2.70;99.90
20459;DHT22;10388;52.314;7.938;2022-12-07T15:44:37;2.60;99.90
20459;DHT22;10388;52.314;7.938;2022-12-07T15:47:27;2.60;99.90
20459;DHT22;10388;52.314;7.938;2022-12-07T15:49:57;2.60;99.90
20459;DHT22;10388;52.314;7.938;2022-12-07T15:52:28;2.50;99.90
20459;DHT22;10388;52.314;7.938;2022-12-07T15:54:58;2.50;99.90
20459;DHT22;10388;52.314;7.938;2022-12-07T15:57:31;2.50;99.90
20459;DHT22;10388;52.314;7.938;2022-12-07T16:00:03;2.50;99.90
20459;DHT22;10388;52.314;7.938;2022-12-07T16:02:34;2.50;99.90
20459;DHT22;10388;52.314;7.938;2022-12-07T16:05:05;2.50;99.90
20459;DHT22;10388;52.314;7.938;2022-12-07T16:07:35;2.60;99.90
20459;DHT22;10388;52.314;7.938;2022-12-07T16:10:06;2.60;99.90
20459;DHT22;10388;52.314;7.938;2022-12-07T16:12:37;2.70;99.90
20459;DHT22;10388;52.314;7.938;2022-12-07T16:15:08;2.80;99.90
20459;DHT22;10388;52.314;7.938;2022-12-07T16:17:38;2.90;99.90
20459;DHT22;10388;52.314;7.938;2022-12-07T16:20:09;2.90;99.90
20459;DHT22;10388;52.314;7.938;2022-12-07T16:22:40;3.10;99.90
20459;DHT22;10388;52.314;7.938;2022-12-07T16:25:10;3.10;99.90
20459;DHT22;10388;52.314;7.938;2022-12-07T16:27:41;3.10;99.90
20459;DHT22;10388;52.314;7.938;2022-12-07T16:30:12;3.10;99.90
20459;DHT22;10388;52.314;7.938;2022-12-07T16:32:44;3.20;99.90
20459;DHT22;10388;52.314;7.938;2022-12-07T16:35:14;3.20;99.90
20459;DHT22;10388;52.314;7.938;2022-12-07T16:37:45;3.20;99.90
20459;DHT22;10388;52.314;7.938;2022-12-07T16:40:15;3.20;99.90
20459;DHT22;10388;52.314;7.938;2022-12-07T16:42:46;3.10;99.90
20459;DHT22;10388;52.314;7.938;2022-12-07T16:45:16;3.10;99.90
20459;DHT22;10388;52.314;7.938;2022-12-07T16:47:47;3.00;99.90
20459;DHT22;10388;52.314;7.938;2022-12-07T16:50:17;2.90;99.90
20459;DHT22;10388;52.314;7.938;2022-12-07T16:52:48;2.90;99.90
20459;DHT22;10388;52.314;7.938;2022-12-07T16:55:18;2.80;99.90
20459;DHT22;10388;52.314;7.938;2022-12-07T16:57:49;2.70;99.90
20459;DHT22;10388;52.314;7.938;2022-12-07T17:00:20;2.70;99.90
20459;DHT22;10388;52.314;7.938;2022-12-07T17:02:50;2.70;99.90
20459;DHT22;10388;52.314;7.938;2022-12-07T17:05:21;2.70;99.90
20459;DHT22;10388;52.314;7.938;2022-12-07T17:07:52;2.70;99.90
20459;DHT22;10388;52.314;7.938;2022-12-07T17:10:23;2.70;99.90
20459;DHT22;10388;52.314;7.938;2022-12-07T17:12:54;2.60;99.90
20459;DHT22;10388;52.314;7.938;2022-12-07T17:15:25;2.60;99.90
20459;DHT22;10388;52.314;7.938;2022-12-07T17:17:57;2.50;99.90
20459;DHT22;10388;52.314;7.938;2022-12-07T17:20:28;2.50;99.90
20459;DHT22;10388;52.314;7.938;2022-12-07T17:22:58;2.50;99.90
20459;DHT22;10388;52.314;7.938;2022-12-07T17:25:29;2.50;99.90
20459;DHT22;10388;52.314;7.938;2022-12-07T17:27:59;2.50;99.90
20459;DHT22;10388;52.314;7.938;2022-12-07T17:30:30;2.50;99.90
20459;DHT22;10388;52.314;7.938;2022-12-07T17:33:01;2.50;99.90
20459;DHT22;10388;52.314;7.938;2022-12-07T17:35:31;2.40;99.90
20459;DHT22;10388;52.314;7.938;2022-12-07T17:38:02;2.40;99.90
20459;DHT22;10388;52.314;7.938;2022-12-07T17:40:33;2.40;99.90
20459;DHT22;10388;52.314;7.938;2022-12-07T17:43:03;2.30;99.90
20459;DHT22;10388;52.314;7.938;2022-12-07T17:45:36;2.40;99.90
20459;DHT22;10388;52.314;7.938;2022-12-07T17:48:06;2.30;99.90
20459;DHT22;10388;52.314;7.938;2022-12-07T17:50:38;2.30;99.90
20459;DHT22;10388;52.314;7.938;2022-12-07T17:53:28;2.30;99.90
20459;DHT22;10388;52.314;7.938;2022-12-07T17:55:59;2.30;99.90
20459;DHT22;10388;52.314;7.938;2022-12-07T17:58:29;2.30;99.90
20459;DHT22;10388;52.314;7.938;2022-12-07T18:01:00;2.40;99.90
20459;DHT22;10388;52.314;7.938;2022-12-07T18:03:30;2.40;99.90
20459;DHT22;10388;52.314;7.938;2022-12-07T18:06:01;2.40;99.90
20459;DHT22;10388;52.314;7.938;2022-12-07T18:08:34;2.40;99.90
20459;DHT22;10388;52.314;7.938;2022-12-07T18:11:06;2.30;99.90
20459;DHT22;10388;52.314;7.938;2022-12-07T18:13:36;2.40;99.90
20459;DHT22;10388;52.314;7.938;2022-12-07T18:16:13;2.40;99.90
20459;DHT22;10388;52.314;7.938;2022-12-07T18:18:44;2.40;99.90
20459;DHT22;10388;52.314;7.938;2022-12-07T18:21:17;2.40;99.90
20459;DHT22;10388;52.314;7.938;2022-12-07T18:23:50;2.40;99.90
20459;DHT22;10388;52.314;7.938;2022-12-07T18:26:22;2.40;99.90
20459;DHT22;10388;52.314;7.938;2022-12-07T18:28:53;2.40;99.90
20459;DHT22;10388;52.314;7.938;2022-12-07T18:31:24;2.40;99.90
20459;DHT22;10388;52.314;7.938;2022-12-07T18:33:59;2.40;99.90
20459;DHT22;10388;52.314;7.938;2022-12-07T18:36:30;2.40;99.90
20459;DHT22;10388;52.314;7.938;2022-12-07T18:39:04;2.40;99.90
20459;DHT22;10388;52.314;7.938;2022-12-07T18:41:34;2.40;99.90
20459;DHT22;10388;52.314;7.938;2022-12-07T18:44:06;2.50;99.90
20459;DHT22;10388;52.314;7.938;2022-12-07T18:46:36;2.50;99.90
20459;DHT22;10388;52.314;7.938;2022-12-07T18:49:10;2.50;99.90
20459;DHT22;10388;52.314;7.938;2022-12-07T18:51:41;2.40;99.90
20459;DHT22;10388;52.314;7.938;2022-12-07T18:54:12;2.40;99.90
20459;DHT22;10388;52.314;7.938;2022-12-07T18:56:42;2.40;99.90
20459;DHT22;10388;52.314;7.938;2022-12-07T18:59:13;2.40;99.90
20459;DHT22;10388;52.314;7.938;2022-12-07T19:02:02;2.40;99.90
20459;DHT22;10388;52.314;7.938;2022-12-07T19:04:33;2.40;99.90
20459;DHT22;10388;52.314;7.938;2022-12-07T19:07:03;2.40;99.90
20459;DHT22;10388;52.314;7.938;2022-12-07T19:09:34;2.30;99.90
20459;DHT22;10388;52.314;7.938;2022-12-07T19:12:05;2.30;99.90
20459;DHT22;10388;52.314;7.938;2022-12-07T19:14:36;2.30;99.90
20459;DHT22;10388;52.314;7.938;2022-12-07T19:17:10;2.30;99.90
20459;DHT22;10388;52.314;7.938;2022-12-07T19:19:43;2.20;99.90
20459;DHT22;10388;52.314;7.938;2022-12-07T19:22:16;2.20;99.90
20459;DHT22;10388;52.314;7.938;2022-12-07T19:24:49;2.20;99.90
20459;DHT22;10388;52.314;7.938;2022-12-07T19:27:21;2.20;99.90
20459;DHT22;10388;52.314;7.938;2022-12-07T19:29:52;2.20;99.90
20459;DHT22;10388;52.314;7.938;2022-12-07T19:32:22;2.30;99.90
20459;DHT22;10388;52.314;7.938;2022-12-07T19:34:53;2.30;99.90
20459;DHT22;10388;52.314;7.938;2022-12-07T19:37:25;2.40;99.90
20459;DHT22;10388;52.314;7.938;2022-12-07T19:39:56;2.30;99.90
20459;DHT22;10388;52.314;7.938;2022-12-07T19:42:26;2.30;99.90
20459;DHT22;10388;52.314;7.938;2022-12-07T19:44:57;2.30;99.90
20459;DHT22;10388;52.314;7.938;2022-12-07T19:47:27;2.30;99.90
20459;DHT22;10388;52.314;7.938;2022-12-07T19:49:58;2.30;99.90
20459;DHT22;10388;52.314;7.938;2022-12-07T19:52:28;2.40;99.90
20459;DHT22;10388;52.314;7.938;2022-12-07T19:54:59;2.40;99.90
20459;DHT22;10388;52.314;7.938;2022-12-07T19:57:29;2.50;99.90
20459;DHT22;10388;52.314;7.938;2022-12-07T20:00:00;2.50;99.90
20459;DHT22;10388;52.314;7.938;2022-12-07T20:02:30;2.50;99.90
20459;DHT22;10388;52.314;7.938;2022-12-07T20:05:01;2.60;99.90
20459;DHT22;10388;52.314;7.938;2022-12-07T20:07:32;2.60;99.90
20459;DHT22;10388;52.314;7.938;2022-12-07T20:10:06;2.60;99.90
20459;DHT22;10388;52.314;7.938;2022-12-07T20:12:37;2.60;99.90
20459;DHT22;10388;52.314;7.938;2022-12-07T20:15:26;2.60;99.90
20459;DHT22;10388;52.314;7.938;2022-12-07T20:17:57;2.70;99.90